createdAt,value
2019-05-20T07:19:50.245Z,600.00
2019-05-20T07:20:50.238Z,608.00
2019-05-20T07:22:55.239Z,600.00
2019-05-20T07:23:43.333Z,600.00
2019-05-20T07:24:43.372Z,612.00
2019-05-20T07:29:08.460Z,640.00
2019-05-20T07:30:08.464Z,632.00
2019-05-20T07:31:08.495Z,636.00
2019-05-20T07:32:08.509Z,636.00
2019-05-20T07:33:08.596Z,636.00
2019-05-20T07:34:08.560Z,624.00
2019-05-20T07:35:08.584Z,616.00
2019-05-20T07:36:10.116Z,608.00
2019-05-20T07:37:08.632Z,600.00
2019-05-20T07:38:08.657Z,604.00
2019-05-20T07:39:08.681Z,604.00
2019-05-20T07:40:08.705Z,600.00
2019-05-20T07:41:08.755Z,608.00
2019-05-20T07:42:08.760Z,624.00
2019-05-20T07:43:08.782Z,624.00
2019-05-20T07:44:08.807Z,620.00
2019-05-20T07:45:08.834Z,624.00
2019-05-20T07:46:08.868Z,616.00
2019-05-20T07:47:10.902Z,624.00
2019-05-20T07:48:08.952Z,628.00
2019-05-20T07:49:08.949Z,628.00
2019-05-20T07:50:08.969Z,628.00
2019-05-20T07:51:08.993Z,636.00
2019-05-20T07:52:09.128Z,644.00
2019-05-20T07:53:09.046Z,644.00
2019-05-20T07:54:09.110Z,644.00
2019-05-20T07:55:09.097Z,640.00
2019-05-20T07:56:09.174Z,636.00
2019-05-20T07:57:09.149Z,636.00
2019-05-20T07:58:09.187Z,624.00
2019-05-20T07:59:09.199Z,616.00
2019-05-20T08:00:09.234Z,608.00
2019-05-20T08:01:09.257Z,596.00
2019-05-20T08:02:09.286Z,600.00
2019-05-20T08:03:09.307Z,580.00
2019-05-20T08:04:09.408Z,576.00
2019-05-20T08:05:09.447Z,576.00
2019-05-20T08:06:09.387Z,568.00
2019-05-20T08:07:26.809Z,584.00
2019-05-20T08:08:09.443Z,596.00
2019-05-20T08:09:09.473Z,608.00
2019-05-20T08:10:09.565Z,636.00
2019-05-20T08:11:09.524Z,648.00
2019-05-20T08:12:09.563Z,660.00
2019-05-20T08:13:09.630Z,672.00
2019-05-20T08:14:09.605Z,684.00
2019-05-20T08:15:09.697Z,700.00
2019-05-20T08:16:09.713Z,700.00
2019-05-20T08:17:09.700Z,696.00
2019-05-20T08:18:09.729Z,696.00
2019-05-20T08:19:09.782Z,704.00
2019-05-20T08:20:09.768Z,696.00
2019-05-20T08:21:09.794Z,704.00
2019-05-20T08:22:09.831Z,696.00
2019-05-20T08:23:09.885Z,696.00
2019-05-20T08:24:09.889Z,696.00
2019-05-20T08:25:09.906Z,684.00
2019-05-20T08:26:09.934Z,688.00
2019-05-20T08:27:09.961Z,692.00
2019-05-20T08:28:09.997Z,692.00
2019-05-20T08:29:10.014Z,680.00
2019-05-20T08:30:13.879Z,684.00
2019-05-20T08:31:10.069Z,692.00
2019-05-20T08:32:10.099Z,684.00
2019-05-20T08:33:10.124Z,680.00
2019-05-20T08:34:10.154Z,680.00
2019-05-20T08:35:10.179Z,680.00
2019-05-20T08:36:10.223Z,700.00
2019-05-20T08:37:10.235Z,692.00
2019-05-20T08:38:10.262Z,700.00
2019-05-20T08:39:10.289Z,700.00
2019-05-20T08:40:10.319Z,704.00
2019-05-20T08:41:10.345Z,704.00
2019-05-20T08:42:10.374Z,712.00
2019-05-20T08:43:10.455Z,724.00
2019-05-20T08:44:10.427Z,736.00
2019-05-20T08:45:10.455Z,732.00
2019-05-20T08:46:10.483Z,744.00
2019-05-20T08:47:10.532Z,752.00
2019-05-20T08:48:10.537Z,744.00
2019-05-20T08:49:11.659Z,740.00
2019-05-20T08:50:15.634Z,740.00
2019-05-20T08:51:10.625Z,740.00
2019-05-20T08:52:10.649Z,744.00
2019-05-20T08:53:10.710Z,748.00
2019-05-20T08:54:10.706Z,744.00
2019-05-20T08:55:10.735Z,740.00
2019-05-20T08:56:10.759Z,752.00
2019-05-20T08:57:10.788Z,752.00
2019-05-20T08:58:10.821Z,764.00
2019-05-20T08:59:10.872Z,772.00
2019-05-20T09:00:10.872Z,772.00
2019-05-20T09:01:12.224Z,772.00
2019-05-20T09:02:10.982Z,784.00
2019-05-20T09:03:10.952Z,768.00
2019-05-20T09:04:11.044Z,760.00
2019-05-20T09:05:11.009Z,772.00
2019-05-20T09:06:11.063Z,760.00
2019-05-20T09:07:11.073Z,768.00
2019-05-20T09:08:11.093Z,776.00
2019-05-20T09:09:12.328Z,776.00
2019-05-20T09:10:11.148Z,760.00
2019-05-20T09:11:11.184Z,740.00
2019-05-20T09:12:11.238Z,744.00
2019-05-20T09:13:11.239Z,740.00
2019-05-20T09:14:11.314Z,732.00
2019-05-20T09:15:11.291Z,740.00
2019-05-20T09:16:11.395Z,740.00
2019-05-20T09:17:11.400Z,740.00
2019-05-20T09:18:11.374Z,744.00
2019-05-20T09:19:11.417Z,736.00
2019-05-20T09:20:11.476Z,728.00
2019-05-20T09:21:11.650Z,732.00
2019-05-20T09:22:11.491Z,724.00
2019-05-20T09:23:11.588Z,724.00
2019-05-20T09:24:11.546Z,740.00
2019-05-20T09:25:11.641Z,724.00
2019-05-20T09:26:11.594Z,724.00
2019-05-20T09:27:11.622Z,712.00
2019-05-20T09:28:11.648Z,736.00
2019-05-20T09:29:11.767Z,732.00
2019-05-20T09:30:11.706Z,732.00
2019-05-20T09:31:11.900Z,732.00
2019-05-20T09:32:11.761Z,724.00
2019-05-20T09:33:11.842Z,716.00
2019-05-20T09:34:11.877Z,708.00
2019-05-20T09:35:11.844Z,704.00
2019-05-20T09:36:11.872Z,708.00
2019-05-20T09:37:11.900Z,716.00
2019-05-20T09:38:20.194Z,712.00
2019-05-20T09:39:11.964Z,716.00
2019-05-20T09:40:11.991Z,704.00
2019-05-20T09:41:12.011Z,692.00
2019-05-20T09:42:12.040Z,692.00
2019-05-20T09:43:12.085Z,688.00
2019-05-20T09:44:12.099Z,684.00
2019-05-20T09:45:12.128Z,696.00
2019-05-20T09:46:12.154Z,692.00
2019-05-20T09:47:12.180Z,264.00
2019-05-20T09:48:12.207Z,264.00
2019-05-20T09:49:12.234Z,264.00
2019-05-20T09:50:12.263Z,268.00
2019-05-20T09:51:12.293Z,268.00
2019-05-20T09:52:12.353Z,272.00
2019-05-20T09:53:12.354Z,272.00
2019-05-20T09:54:12.385Z,268.00
2019-05-20T09:55:12.403Z,268.00
2019-05-20T09:56:12.431Z,260.00
2019-05-20T09:57:12.458Z,260.00
2019-05-20T09:58:12.488Z,252.00
2019-05-20T09:59:16.238Z,252.00
2019-05-20T10:00:12.542Z,260.00
2019-05-20T10:01:12.572Z,264.00
2019-05-20T10:02:12.600Z,264.00
2019-05-20T10:03:12.626Z,260.00
2019-05-20T10:04:12.658Z,268.00
2019-05-20T10:05:12.683Z,268.00
2019-05-20T10:06:12.712Z,272.00
2019-05-20T10:07:12.739Z,276.00
2019-05-20T10:08:12.767Z,272.00
2019-05-20T10:09:12.851Z,272.00
2019-05-20T10:10:12.826Z,272.00
2019-05-20T10:11:12.850Z,272.00
2019-05-20T10:12:12.887Z,276.00
2019-05-20T10:13:12.948Z,272.00
2019-05-20T10:14:12.935Z,268.00
2019-05-20T10:15:12.962Z,268.00
2019-05-20T10:16:12.993Z,268.00
2019-05-20T10:17:13.041Z,272.00
2019-05-20T10:18:13.060Z,276.00
2019-05-20T10:19:13.073Z,276.00
2019-05-20T10:20:13.103Z,276.00
2019-05-20T10:21:13.131Z,272.00
2019-05-20T10:22:13.171Z,272.00
2019-05-20T10:23:15.766Z,268.00
2019-05-20T10:24:13.291Z,268.00
2019-05-20T10:25:13.245Z,264.00
2019-05-20T10:26:13.337Z,260.00
2019-05-20T10:27:13.297Z,260.00
2019-05-20T10:28:13.329Z,268.00
2019-05-20T10:29:13.356Z,272.00
2019-05-20T10:30:13.381Z,276.00
2019-05-20T10:31:13.478Z,276.00
2019-05-20T10:32:13.461Z,280.00
2019-05-20T10:33:13.468Z,284.00
2019-05-20T10:34:13.496Z,288.00
2019-05-20T10:35:13.520Z,288.00
2019-05-20T10:36:13.595Z,288.00
2019-05-20T10:37:13.576Z,288.00
2019-05-20T10:38:13.615Z,288.00
2019-05-20T10:39:13.634Z,280.00
2019-05-20T10:40:13.666Z,288.00
2019-05-20T10:41:13.691Z,280.00
2019-05-20T10:42:13.717Z,296.00
2019-05-20T10:43:13.750Z,296.00
2019-05-20T10:44:13.774Z,292.00
2019-05-20T10:45:13.801Z,296.00
2019-05-20T10:46:13.879Z,300.00
2019-05-20T10:47:13.860Z,300.00
2019-05-20T10:48:13.888Z,300.00
2019-05-20T10:49:13.917Z,296.00
2019-05-20T10:50:13.974Z,296.00
2019-05-20T10:51:13.972Z,292.00
2019-05-20T10:52:14.007Z,292.00
2019-05-20T10:53:14.030Z,288.00
2019-05-20T10:54:14.062Z,288.00
2019-05-20T10:55:14.082Z,292.00
2019-05-20T10:56:14.374Z,292.00
2019-05-20T10:57:14.134Z,292.00
2019-05-20T10:58:14.199Z,292.00
2019-05-20T10:59:14.193Z,292.00
2019-05-20T11:00:14.224Z,288.00
2019-05-20T11:01:14.252Z,288.00
2019-05-20T11:02:14.303Z,292.00
2019-05-20T11:03:14.303Z,288.00
2019-05-20T11:04:14.330Z,288.00
2019-05-20T11:05:14.400Z,288.00
2019-05-20T11:06:14.391Z,288.00
2019-05-20T11:07:14.415Z,288.00
2019-05-20T11:08:14.441Z,280.00
2019-05-20T11:09:14.655Z,272.00
2019-05-20T11:10:14.498Z,272.00
2019-05-20T11:11:14.869Z,268.00
2019-05-20T11:12:14.554Z,264.00
2019-05-20T11:13:14.580Z,264.00
2019-05-20T11:14:14.609Z,264.00
2019-05-20T11:15:14.692Z,260.00
2019-05-20T11:16:14.665Z,260.00
2019-05-20T11:17:15.257Z,252.00
2019-05-20T11:18:14.726Z,256.00
2019-05-20T11:19:14.747Z,252.00
2019-05-20T11:20:14.788Z,252.00
2019-05-20T11:21:14.805Z,252.00
2019-05-20T11:22:14.832Z,252.00
2019-05-20T11:23:14.857Z,248.00
2019-05-20T11:24:14.887Z,248.00
2019-05-20T11:25:14.916Z,244.00
2019-05-20T11:26:14.957Z,248.00
2019-05-20T11:27:14.976Z,252.00
2019-05-20T11:28:15.003Z,252.00
2019-05-20T11:29:15.045Z,236.00
2019-05-20T11:30:15.060Z,240.00
2019-05-20T11:31:15.080Z,252.00
2019-05-20T11:32:15.110Z,260.00
2019-05-20T11:33:15.140Z,260.00
2019-05-20T11:34:15.165Z,252.00
2019-05-20T11:35:15.191Z,240.00
2019-05-20T11:36:15.220Z,248.00
2019-05-20T11:37:15.248Z,244.00
2019-05-20T11:38:15.282Z,232.00
2019-05-20T11:39:31.289Z,240.00
2019-05-20T11:40:15.637Z,236.00
2019-05-20T11:41:15.358Z,236.00
2019-05-20T11:42:15.438Z,236.00
2019-05-20T11:43:15.413Z,240.00
2019-05-20T11:44:15.443Z,240.00
2019-05-20T11:45:15.470Z,236.00
2019-05-20T11:46:15.546Z,236.00
2019-05-20T11:47:15.524Z,232.00
2019-05-20T11:48:15.556Z,232.00
2019-05-20T11:49:15.654Z,232.00
2019-05-20T11:50:15.608Z,232.00
2019-05-20T11:51:15.637Z,232.00
2019-05-20T11:52:15.667Z,228.00
2019-05-20T11:53:15.694Z,232.00
2019-05-20T11:54:15.721Z,236.00
2019-05-20T11:55:15.747Z,236.00
2019-05-20T11:56:15.842Z,232.00
2019-05-20T11:57:15.802Z,232.00
2019-05-20T11:58:16.591Z,232.00
2019-05-20T11:59:15.873Z,228.00
2019-05-20T12:00:15.887Z,236.00
2019-05-20T12:01:15.914Z,236.00
2019-05-20T12:02:15.995Z,236.00
2019-05-20T12:03:15.968Z,236.00
2019-05-20T12:04:16.006Z,240.00
2019-05-20T12:05:16.031Z,240.00
2019-05-20T12:06:16.052Z,244.00
2019-05-20T12:07:16.083Z,240.00
2019-05-20T12:08:16.107Z,244.00
2019-05-20T12:09:16.135Z,244.00
2019-05-20T12:10:16.164Z,244.00
2019-05-20T12:11:16.212Z,252.00
2019-05-20T12:12:16.288Z,256.00
2019-05-20T12:13:16.254Z,256.00
2019-05-20T12:14:16.274Z,252.00
2019-05-20T12:15:16.302Z,248.00
2019-05-20T12:16:16.329Z,252.00
2019-05-20T12:17:16.356Z,244.00
2019-05-20T12:18:16.384Z,248.00
2019-05-20T12:19:16.411Z,248.00
2019-05-20T12:20:16.440Z,252.00
2019-05-20T12:21:16.465Z,256.00
2019-05-20T12:22:16.497Z,260.00
2019-05-20T12:23:16.523Z,260.00
2019-05-20T12:24:16.551Z,264.00
2019-05-20T12:25:16.579Z,268.00
2019-05-20T12:26:16.606Z,264.00
2019-05-20T12:27:16.632Z,268.00
2019-05-20T12:28:16.664Z,272.00
2019-05-20T12:29:16.695Z,288.00
2019-05-20T12:30:16.725Z,288.00
2019-05-20T12:31:16.742Z,292.00
2019-05-20T12:32:16.772Z,304.00
2019-05-20T12:33:18.897Z,300.00
2019-05-20T12:34:16.830Z,272.00
2019-05-20T12:35:16.853Z,300.00
2019-05-20T12:36:16.886Z,288.00
2019-05-20T12:37:16.911Z,284.00
2019-05-20T12:38:16.939Z,260.00
2019-05-20T12:39:16.973Z,256.00
2019-05-20T12:40:16.994Z,268.00
2019-05-20T12:41:17.080Z,252.00
2019-05-20T12:42:17.048Z,252.00
2019-05-20T12:43:17.081Z,252.00
2019-05-20T12:44:17.108Z,256.00
2019-05-20T12:45:17.162Z,248.00
2019-05-20T12:46:17.159Z,244.00
2019-05-20T12:47:17.185Z,228.00
2019-05-20T12:48:17.214Z,232.00
2019-05-20T12:49:17.364Z,224.00
2019-05-20T12:50:17.276Z,224.00
2019-05-20T12:51:17.337Z,216.00
2019-05-20T12:52:17.389Z,208.00
2019-05-20T12:53:17.361Z,212.00
2019-05-20T12:54:17.420Z,216.00
2019-05-20T12:55:17.439Z,212.00
2019-05-20T12:56:19.671Z,204.00
2019-05-20T12:57:17.509Z,204.00
2019-05-20T12:58:17.493Z,208.00
2019-05-20T12:59:17.520Z,212.00
2019-05-20T13:00:17.573Z,212.00
2019-05-20T13:01:17.575Z,204.00
2019-05-20T13:02:17.764Z,208.00
2019-05-20T13:03:17.659Z,208.00
2019-05-20T13:04:17.660Z,212.00
2019-05-20T13:05:17.689Z,212.00
2019-05-20T13:06:17.745Z,216.00
2019-05-20T13:07:17.745Z,216.00
2019-05-20T13:08:17.770Z,220.00
2019-05-20T13:09:17.799Z,224.00
2019-05-20T13:10:28.848Z,228.00
2019-05-20T13:11:17.880Z,220.00
2019-05-20T13:12:17.881Z,216.00
2019-05-20T13:13:17.936Z,220.00
2019-05-20T13:14:17.938Z,216.00
2019-05-20T13:15:18.038Z,220.00
2019-05-20T13:16:18.039Z,228.00
2019-05-20T13:17:18.019Z,236.00
2019-05-20T13:18:18.047Z,236.00
2019-05-20T13:19:18.074Z,240.00
2019-05-20T13:20:18.108Z,240.00
2019-05-20T13:21:18.129Z,232.00
2019-05-20T13:22:18.162Z,224.00
2019-05-20T13:23:18.185Z,232.00
2019-05-20T13:24:18.302Z,232.00
2019-05-20T13:25:18.241Z,228.00
2019-05-20T13:26:18.341Z,228.00
2019-05-20T13:27:18.297Z,224.00
2019-05-20T13:28:18.325Z,216.00
2019-05-20T13:29:18.351Z,216.00
2019-05-20T13:30:18.380Z,212.00
2019-05-20T13:31:18.406Z,212.00
2019-05-20T13:32:18.436Z,212.00
2019-05-20T13:33:18.463Z,212.00
2019-05-20T13:34:18.838Z,212.00
2019-05-20T13:35:18.525Z,208.00
2019-05-20T13:36:18.545Z,212.00
2019-05-20T13:37:18.581Z,204.00
2019-05-20T13:38:18.601Z,204.00
2019-05-20T13:39:18.648Z,200.00
2019-05-20T13:40:18.658Z,196.00
2019-05-20T13:41:18.685Z,196.00
2019-05-20T13:42:18.717Z,192.00
2019-05-20T13:43:18.740Z,192.00
2019-05-20T13:44:18.769Z,192.00
2019-05-20T13:45:18.895Z,192.00
2019-05-20T13:46:18.823Z,200.00
2019-05-20T13:47:18.905Z,196.00
2019-05-20T13:48:18.881Z,196.00
2019-05-20T13:49:18.907Z,200.00
2019-05-20T13:50:18.938Z,196.00
2019-05-20T13:51:18.962Z,200.00
2019-05-20T13:52:18.990Z,204.00
2019-05-20T13:53:19.019Z,200.00
2019-05-20T13:54:19.046Z,192.00
2019-05-20T13:55:19.072Z,196.00
2019-05-20T13:56:19.108Z,192.00
2019-05-20T13:57:19.133Z,196.00
2019-05-20T13:58:19.192Z,196.00
2019-05-20T13:59:19.183Z,200.00
2019-05-20T14:00:19.211Z,200.00
2019-05-20T14:01:19.290Z,200.00
2019-05-20T14:02:19.269Z,200.00
2019-05-20T14:03:19.296Z,204.00
2019-05-20T14:04:19.323Z,200.00
2019-05-20T14:05:19.351Z,200.00
2019-05-20T14:06:19.377Z,204.00
2019-05-20T14:07:19.405Z,204.00
2019-05-20T14:08:19.432Z,204.00
2019-05-20T14:09:19.465Z,204.00
2019-05-20T14:10:19.491Z,208.00
2019-05-20T14:11:33.801Z,212.00
2019-05-20T14:12:19.544Z,204.00
2019-05-20T14:13:19.574Z,212.00
2019-05-20T14:14:19.601Z,216.00
2019-05-20T14:15:19.626Z,220.00
2019-05-20T14:16:19.705Z,220.00
2019-05-20T14:17:19.683Z,204.00
2019-05-20T14:18:19.711Z,196.00
2019-05-20T14:19:22.525Z,196.00
2019-05-20T14:20:19.768Z,192.00
2019-05-20T14:21:19.798Z,188.00
2019-05-20T14:22:19.823Z,188.00
2019-05-20T14:23:19.852Z,188.00
2019-05-20T14:24:19.877Z,184.00
2019-05-20T14:25:19.904Z,184.00
2019-05-20T14:26:19.951Z,184.00
2019-05-20T14:27:19.966Z,180.00
2019-05-20T14:28:19.991Z,184.00
2019-05-20T14:29:20.019Z,180.00
2019-05-20T14:30:20.045Z,180.00
2019-05-20T14:31:20.073Z,176.00
2019-05-20T14:32:20.101Z,172.00
2019-05-20T14:33:20.134Z,168.00
2019-05-20T14:34:20.155Z,168.00
2019-05-20T14:35:20.189Z,164.00
2019-05-20T14:36:38.624Z,160.00
2019-05-20T14:37:20.240Z,160.00
2019-05-20T14:38:20.268Z,160.00
2019-05-20T14:39:20.297Z,160.00
2019-05-20T14:40:20.324Z,156.00
2019-05-20T14:41:22.088Z,160.00
2019-05-20T14:42:20.380Z,156.00
2019-05-20T14:43:20.406Z,160.00
2019-05-20T14:44:20.435Z,156.00
2019-05-20T14:45:20.465Z,156.00
2019-05-20T14:46:20.488Z,156.00
2019-05-20T14:47:20.589Z,156.00
2019-05-20T14:48:20.544Z,156.00
2019-05-20T14:49:20.573Z,156.00
2019-05-20T14:50:20.658Z,156.00
2019-05-20T14:51:20.643Z,156.00
2019-05-20T14:52:20.657Z,156.00
2019-05-20T14:53:20.728Z,156.00
2019-05-20T14:54:20.714Z,160.00
2019-05-20T14:55:20.780Z,152.00
2019-05-20T14:56:20.768Z,156.00
2019-05-20T14:57:20.871Z,152.00
2019-05-20T14:58:20.908Z,152.00
2019-05-20T14:59:20.848Z,156.00
2019-05-20T15:00:20.949Z,152.00
2019-05-20T15:01:20.905Z,156.00
2019-05-20T15:02:20.935Z,156.00
2019-05-20T15:03:21.036Z,152.00
2019-05-20T15:04:20.999Z,152.00
2019-05-20T15:05:21.016Z,152.00
2019-05-20T15:06:21.044Z,152.00
2019-05-20T15:07:30.185Z,148.00
2019-05-20T15:08:21.184Z,152.00
2019-05-20T15:09:21.130Z,152.00
2019-05-20T15:10:21.156Z,152.00
2019-05-20T15:11:36.803Z,156.00
2019-05-20T15:12:21.210Z,156.00
2019-05-20T15:13:21.240Z,156.00
2019-05-20T15:14:21.271Z,156.00
2019-05-20T15:15:21.296Z,156.00
2019-05-20T15:16:21.670Z,152.00
2019-05-20T15:17:21.362Z,148.00
2019-05-20T15:18:21.377Z,144.00
2019-05-20T15:19:21.405Z,144.00
2019-05-20T15:20:21.500Z,144.00
2019-05-20T15:21:21.556Z,144.00
2019-05-20T15:22:21.493Z,136.00
2019-05-20T15:23:21.515Z,136.00
2019-05-20T15:24:21.546Z,132.00
2019-05-20T15:25:21.573Z,128.00
2019-05-20T15:26:21.602Z,124.00
2019-05-20T15:27:21.627Z,124.00
2019-05-20T15:28:21.655Z,120.00
2019-05-20T15:29:27.944Z,120.00
2019-05-20T15:30:21.757Z,120.00
2019-05-20T15:31:21.739Z,116.00
2019-05-20T15:32:21.768Z,116.00
2019-05-20T15:33:21.801Z,116.00
2019-05-20T15:34:21.869Z,120.00
2019-05-20T15:35:21.849Z,116.00
2019-05-20T15:36:21.877Z,120.00
2019-05-20T15:37:21.919Z,120.00
2019-05-20T15:38:21.935Z,116.00
2019-05-20T15:39:21.971Z,120.00
2019-05-20T15:40:24.437Z,120.00
2019-05-20T15:41:22.019Z,116.00
2019-05-20T15:42:22.045Z,120.00
2019-05-20T15:43:22.070Z,116.00
2019-05-20T15:44:22.100Z,112.00
2019-05-20T15:45:22.130Z,116.00
2019-05-20T15:46:22.157Z,116.00
2019-05-20T15:47:22.184Z,112.00
2019-05-20T15:48:22.211Z,116.00
2019-05-20T15:49:22.295Z,112.00
2019-05-20T15:50:22.267Z,116.00
2019-05-20T15:51:22.340Z,112.00
2019-05-20T15:52:22.321Z,108.00
2019-05-20T15:53:22.349Z,112.00
2019-05-20T15:54:22.517Z,112.00
2019-05-20T15:55:22.407Z,108.00
2019-05-20T15:56:22.431Z,104.00
2019-05-20T15:57:22.461Z,108.00
2019-05-20T15:58:23.854Z,104.00
2019-05-20T15:59:22.517Z,104.00
2019-05-20T16:00:22.545Z,100.00
2019-05-20T16:01:22.613Z,100.00
2019-05-20T16:02:22.600Z,96.00
2019-05-20T16:03:22.625Z,100.00
2019-05-20T16:04:22.655Z,96.00
2019-05-20T16:05:22.682Z,96.00
2019-05-20T16:06:22.711Z,92.00
2019-05-20T16:07:22.738Z,88.00
2019-05-20T16:08:22.764Z,88.00
2019-05-20T16:09:22.793Z,88.00
2019-05-20T16:10:22.828Z,84.00
2019-05-20T16:11:22.897Z,80.00
2019-05-20T16:12:22.880Z,80.00
2019-05-20T16:13:22.904Z,80.00
2019-05-20T16:14:22.934Z,76.00
2019-05-20T16:15:22.959Z,76.00
2019-05-20T16:16:23.055Z,76.00
2019-05-20T16:17:23.083Z,72.00
2019-05-20T16:18:23.044Z,76.00
2019-05-20T16:19:23.073Z,72.00
2019-05-20T16:20:23.100Z,72.00
2019-05-20T16:21:23.127Z,72.00
2019-05-20T16:22:23.155Z,72.00
2019-05-20T16:23:23.182Z,72.00
2019-05-20T16:24:23.210Z,72.00
2019-05-20T16:25:23.294Z,72.00
2019-05-20T16:26:23.270Z,72.00
2019-05-20T16:27:23.293Z,68.00
2019-05-20T16:28:23.327Z,72.00
2019-05-20T16:29:23.350Z,72.00
2019-05-20T16:30:23.382Z,72.00
2019-05-20T16:31:23.402Z,72.00
2019-05-20T16:32:23.433Z,72.00
2019-05-20T16:33:23.509Z,76.00
2019-05-20T16:34:23.491Z,76.00
2019-05-20T16:35:23.517Z,72.00
2019-05-20T16:36:23.562Z,72.00
2019-05-20T16:37:23.572Z,72.00
2019-05-20T16:38:23.600Z,72.00
2019-05-20T16:39:23.625Z,68.00
2019-05-20T16:40:23.655Z,72.00
2019-05-20T16:41:23.681Z,68.00
2019-05-20T16:42:23.719Z,68.00
2019-05-20T16:43:23.735Z,68.00
2019-05-20T16:44:23.765Z,64.00
2019-05-20T16:45:23.797Z,64.00
2019-05-20T16:46:23.822Z,64.00
2019-05-20T16:47:23.849Z,60.00
2019-05-20T16:48:23.876Z,60.00
2019-05-20T16:49:23.903Z,60.00
2019-05-20T16:50:24.003Z,60.00
2019-05-20T16:51:23.958Z,56.00
2019-05-20T16:52:23.988Z,60.00
2019-05-20T16:53:24.016Z,56.00
2019-05-20T16:54:24.067Z,56.00
2019-05-20T16:55:24.071Z,56.00
2019-05-20T16:56:24.098Z,56.00
2019-05-20T16:57:24.151Z,56.00
2019-05-20T16:58:24.233Z,52.00
2019-05-20T16:59:24.181Z,52.00
2019-05-20T17:00:31.409Z,56.00
2019-05-20T17:01:24.236Z,52.00
2019-05-20T17:02:24.266Z,52.00
2019-05-20T17:03:24.317Z,48.00
2019-05-20T17:04:24.325Z,52.00
2019-05-20T17:05:24.347Z,48.00
2019-05-20T17:06:27.480Z,48.00
2019-05-20T17:07:24.401Z,48.00
2019-05-20T17:08:24.434Z,48.00
2019-05-20T17:09:24.460Z,44.00
2019-05-20T17:10:24.487Z,44.00
2019-05-20T17:11:24.513Z,44.00
2019-05-20T17:12:24.541Z,40.00
2019-05-20T17:13:24.569Z,44.00
2019-05-20T17:14:24.598Z,40.00
2019-05-20T17:15:24.628Z,40.00
2019-05-20T17:16:24.651Z,40.00
2019-05-20T17:17:24.682Z,40.00
2019-05-20T17:18:24.708Z,40.00
2019-05-20T17:19:24.789Z,40.00
2019-05-20T17:20:24.763Z,36.00
2019-05-20T17:21:24.850Z,36.00
2019-05-20T17:22:24.818Z,36.00
2019-05-20T17:23:24.845Z,40.00
2019-05-20T17:24:24.874Z,36.00
2019-05-20T17:25:24.910Z,36.00
2019-05-20T17:26:24.930Z,36.00
2019-05-20T17:27:24.959Z,36.00
2019-05-20T17:28:25.008Z,36.00
2019-05-20T17:29:25.092Z,36.00
2019-05-20T17:30:25.042Z,36.00
2019-05-20T17:31:26.709Z,36.00
2019-05-20T17:32:25.096Z,36.00
2019-05-20T17:33:25.133Z,36.00
2019-05-20T17:34:25.189Z,36.00
2019-05-20T17:35:25.178Z,36.00
2019-05-20T17:36:25.214Z,36.00
2019-05-20T17:37:25.242Z,36.00
2019-05-20T17:38:25.261Z,32.00
2019-05-20T17:39:25.328Z,32.00
2019-05-20T17:40:25.321Z,32.00
2019-05-20T17:41:25.360Z,32.00
2019-05-20T17:42:25.373Z,32.00
2019-05-20T17:43:25.401Z,32.00
2019-05-20T17:44:25.431Z,32.00
2019-05-20T17:45:25.460Z,32.00
2019-05-20T17:46:25.537Z,32.00
2019-05-20T17:47:25.512Z,32.00
2019-05-20T17:48:25.550Z,32.00
2019-05-20T17:49:25.578Z,32.00
2019-05-20T17:50:25.594Z,28.00
2019-05-20T17:51:25.622Z,28.00
2019-05-20T17:52:25.653Z,28.00
2019-05-20T17:53:25.678Z,32.00
2019-05-20T17:54:25.706Z,28.00
2019-05-20T17:55:25.907Z,28.00
2019-05-20T17:56:25.777Z,28.00
2019-05-20T17:57:25.814Z,28.00
2019-05-20T17:58:25.818Z,28.00
2019-05-20T17:59:25.844Z,24.00
2019-05-20T18:00:25.872Z,24.00
2019-05-20T18:01:25.907Z,24.00
2019-05-20T18:02:25.926Z,24.00
2019-05-20T18:03:25.954Z,24.00
2019-05-20T18:04:25.983Z,24.00
2019-05-20T18:05:26.014Z,24.00
2019-05-20T18:06:26.040Z,20.00
2019-05-20T18:07:26.067Z,20.00
2019-05-20T18:08:26.151Z,24.00
2019-05-20T18:09:26.120Z,20.00
2019-05-20T18:10:26.147Z,20.00
2019-05-20T18:11:26.177Z,20.00
2019-05-20T18:12:26.204Z,16.00
2019-05-20T18:13:26.234Z,20.00
2019-05-20T18:14:26.260Z,20.00
2019-05-20T18:15:26.288Z,16.00
2019-05-20T18:16:26.312Z,16.00
2019-05-20T18:17:26.342Z,16.00
2019-05-20T18:18:26.371Z,20.00
2019-05-20T18:19:26.398Z,16.00
2019-05-20T18:20:26.473Z,16.00
2019-05-20T18:21:26.453Z,16.00
2019-05-20T18:22:26.482Z,12.00
2019-05-20T18:23:26.572Z,16.00
2019-05-20T18:24:26.535Z,16.00
2019-05-20T18:25:26.563Z,16.00
2019-05-20T18:26:26.591Z,12.00
2019-05-20T18:27:26.619Z,12.00
2019-05-20T18:28:26.646Z,12.00
2019-05-20T18:29:26.718Z,12.00
2019-05-20T18:30:26.710Z,12.00
2019-05-20T18:31:32.294Z,12.00
2019-05-20T18:32:26.758Z,12.00
2019-05-20T18:33:26.784Z,12.00
2019-05-20T18:34:26.813Z,8.00
2019-05-20T18:35:26.839Z,8.00
2019-05-20T18:36:26.867Z,8.00
2019-05-20T18:37:26.899Z,12.00
2019-05-20T18:38:26.930Z,8.00
2019-05-20T18:39:26.951Z,8.00
2019-05-20T18:40:26.980Z,8.00
2019-05-20T18:41:27.005Z,8.00
2019-05-20T18:42:27.033Z,8.00
2019-05-20T18:43:27.061Z,8.00
2019-05-20T18:44:27.155Z,4.00
2019-05-20T18:45:27.120Z,4.00
2019-05-20T18:46:27.146Z,8.00
2019-05-20T18:47:27.173Z,8.00
2019-05-20T18:48:27.269Z,8.00
2019-05-20T18:49:27.227Z,8.00
2019-05-20T18:50:27.253Z,8.00
2019-05-20T18:51:27.305Z,8.00
2019-05-20T18:52:27.308Z,4.00
2019-05-20T18:53:27.338Z,4.00
2019-05-20T18:54:27.367Z,4.00
2019-05-20T18:55:27.451Z,4.00
2019-05-20T18:56:27.420Z,4.00
2019-05-20T18:57:27.449Z,4.00
2019-05-20T18:58:27.474Z,4.00
2019-05-20T18:59:27.505Z,4.00
2019-05-20T19:00:27.532Z,4.00
2019-05-20T19:01:27.558Z,4.00
2019-05-20T19:02:27.585Z,4.00
2019-05-20T19:03:28.599Z,4.00
2019-05-20T19:04:27.641Z,4.00
2019-05-20T19:05:27.668Z,4.00
2019-05-20T19:06:27.700Z,4.00
2019-05-20T19:07:27.723Z,4.00
2019-05-20T19:08:27.751Z,4.00
2019-05-20T19:09:27.830Z,4.00
2019-05-20T19:10:27.807Z,4.00
2019-05-20T19:11:27.834Z,4.00
2019-05-20T19:12:27.868Z,4.00
2019-05-20T19:13:27.951Z,0.00
2019-05-20T19:14:27.916Z,0.00
2019-05-20T19:15:27.946Z,0.00
2019-05-20T19:16:27.973Z,0.00
2019-05-20T19:17:28.018Z,0.00
2019-05-20T19:18:28.030Z,0.00
2019-05-20T19:19:28.056Z,0.00
2019-05-20T19:20:28.082Z,0.00
2019-05-20T19:21:28.109Z,0.00
2019-05-20T19:22:28.137Z,0.00
2019-05-20T19:23:28.164Z,0.00
2019-05-20T19:24:28.192Z,0.00
2019-05-20T19:25:37.284Z,0.00
2019-05-20T19:26:28.249Z,0.00
2019-05-20T19:27:28.274Z,0.00
2019-05-20T19:28:28.363Z,0.00
2019-05-20T19:29:28.332Z,0.00
2019-05-20T19:30:28.369Z,0.00
2019-05-20T19:31:28.385Z,0.00
2019-05-20T19:32:28.414Z,0.00
2019-05-20T19:33:28.441Z,0.00
2019-05-20T19:34:28.469Z,0.00
2019-05-20T19:35:28.496Z,0.00
2019-05-20T19:36:28.524Z,0.00
2019-05-20T19:37:28.550Z,0.00
2019-05-20T19:38:32.845Z,0.00
2019-05-20T19:39:28.605Z,0.00
2019-05-20T19:40:28.633Z,0.00
2019-05-20T19:41:28.676Z,0.00
2019-05-20T19:42:28.699Z,0.00
2019-05-20T19:43:28.716Z,0.00
2019-05-20T19:44:28.744Z,0.00
2019-05-20T19:45:28.772Z,0.00
2019-05-20T19:46:28.841Z,0.00
2019-05-20T19:47:28.827Z,0.00
2019-05-20T19:48:28.855Z,0.00
2019-05-20T19:49:28.885Z,0.00
2019-05-20T19:50:28.909Z,0.00
2019-05-20T19:51:28.936Z,0.00
2019-05-20T19:52:28.966Z,0.00
2019-05-20T19:53:28.995Z,0.00
2019-05-20T19:54:29.020Z,0.00
2019-05-20T19:55:29.045Z,0.00
2019-05-20T19:56:29.075Z,0.00
2019-05-20T19:57:29.102Z,0.00
2019-05-20T19:58:29.199Z,0.00
2019-05-20T19:59:29.164Z,0.00
2019-05-20T20:00:29.195Z,0.00
2019-05-20T20:01:29.212Z,0.00
2019-05-20T20:02:29.240Z,0.00